Aeroporto :
LOGIN :

Iscrizione | Disclaimer

   EN    FR    IT 

 










Sommario :    VFR   VFR Marginale   IFR   IFR Intensivo   IFR Molto Intensivo
Visibilità : 
Base nubi : 
>= 8 km
>= 3000ft
5 / 8 km
1000 / 3000 ft
1500m / 5 km
500 / 1000 ft
800 / 1500m
200 / 500 ft
< 800m
< 200 ft
Simboli :   Temporali  Nebbia  Neve Forte  Precipitazioni Forti  Vento > 20 kt
SIGMETs :   Varie  Temporali  Ghiacco  Turbolenza  Onda orograficha  Ceneri Vulcaniche






- Altitudine del aeroporto : 239 ft
- Codice IATA : VRN


LIPX - Villafranca Int. Verona

ULTIMO METAR :
  • 051350Z 03005KT 7000 RA SCT015 SCT030 BKN050 08/08 Q0998

METARs OBSOLETI :
  • 051320Z 01004KT 9999 -RA SCT010 SCT025 BKN050 07/07 Q0998
  • 051250Z 02006KT 9999 -RA FEW006 BKN015 07/06 Q0998
  • 051220Z 35002KT 9999 -RA BKN015 07/06 Q0999
  • 051150Z 28005KT 9999 -RA SCT020 BKN040 07/06 Q0999
  • 051120Z 34007KT 8000 -RA BKN030 07/05 Q0999

TAF TAF LIPX
Valido dal 05 a 12 ore il 05 a 21 ore UTC


051100Z 0512/0521 VRB05KT 5000 RA BKN040



MetMap, La meteo Aeronautica in un colpo d'occhio ! - Copyright ORBIFLY Dicembre 2007 - Disclaimer

ORBIFLY MET'MAP TEAM :

Programmazione e sviluppo : Alexandra Zaïnal
Concezione : Baudouin d'Aumeries
Aiuto per la programmazione : Marc-Olivier Méhu
Supporto tecnico e logistico : Manuel Goepfert
Aiuto per la traduzione : Arnaldo La Scala

Contatto : metmap@orbifly.com




FONTI E CREDITI :

   NOAA